Alpena County Regional Airport

Airport
ICAO code: 
KAPN
Summary
ICAO Region: 
NAM
Territory: 
Location: 
Alpena, Michigan,
Coordinates: 
Aerial View: 
45° 4' 40.799" N, 83° 33' 41.043" W
Airport CFIT: 
Altimeter Temperature Error Correction
Airport GND: 
Aircraft Ground De/Anti Icing
Airport RE: 
Landing on Contaminated Runways
Metar
Observation
KAPN 271954Z AUTO 19004KT 10SM OVC080 M02/M07 A2990 RMK AO2 SLP138 T10171072 VISNO RY 19 $
Station
Alpena, Alpena County Regional Airport
Date/Time
2021-11-27 19:54:00
Wind direction
190°
Wind speed
04 kts
Lowest cloud amount
overcast
Temperature
-1.7°C
Dew point
-7.2°C
Humidity
66%
Weather condition
n/a

Description

Alpena County Regional Airport is a public-use, joint civil-military (ANG) airport located 11 km west of the central business district of Alpena, in Alpena County, Michigan.

Climatology

Humid Continental climate (Köppen climate classification Dfb) - Variable weather patterns and a large seasonal temperature variance. Summers are often warm and humid with frequent thunderstorms and winters can be very cold with frequent snowfall and persistent snow cover.

Runways

Designator Length Width Surface Rops
7/25 1533 30 CON Yes/Yes
1/19 2744 46 CON Yes/Yes
Airport map: 
Aerial View: 

SKYbrary Partners:

Safety knowledge contributed by: